sensor_id;sensor_type;location;lat;lon;timestamp;P1;durP1;ratioP1;P2;durP2;ratioP2
22837;SDS011;11585;51.450;-0.240;2022-09-09T00:03:55;29.05;;;3.92;;
22837;SDS011;11585;51.450;-0.240;2022-09-09T00:06:35;23.40;;;4.53;;
22837;SDS011;11585;51.450;-0.240;2022-09-09T00:09:17;14.23;;;3.75;;
22837;SDS011;11585;51.450;-0.240;2022-09-09T00:12:12;11.80;;;3.72;;
22837;SDS011;11585;51.450;-0.240;2022-09-09T00:15:13;29.67;;;4.15;;
22837;SDS011;11585;51.450;-0.240;2022-09-09T00:17:49;12.25;;;3.53;;
22837;SDS011;11585;51.450;-0.240;2022-09-09T00:20:43;19.50;;;4.55;;
22837;SDS011;11585;51.450;-0.240;2022-09-09T00:29:03;23.65;;;4.00;;
22837;SDS011;11585;51.450;-0.240;2022-09-09T00:31:45;20.67;;;4.20;;
22837;SDS011;11585;51.450;-0.240;2022-09-09T00:34:13;26.58;;;4.30;;
22837;SDS011;11585;51.450;-0.240;2022-09-09T00:36:39;24.00;;;4.30;;
22837;SDS011;11585;51.450;-0.240;2022-09-09T00:39:09;14.98;;;3.90;;
22837;SDS011;11585;51.450;-0.240;2022-09-09T00:47:39;24.90;;;3.90;;
22837;SDS011;11585;51.450;-0.240;2022-09-09T00:52:47;29.60;;;4.28;;
22837;SDS011;11585;51.450;-0.240;2022-09-09T00:58:10;15.02;;;3.40;;
22837;SDS011;11585;51.450;-0.240;2022-09-09T01:00:46;23.85;;;4.18;;
22837;SDS011;11585;51.450;-0.240;2022-09-09T01:03:34;23.70;;;3.50;;
22837;SDS011;11585;51.450;-0.240;2022-09-09T01:11:42;21.10;;;3.63;;
22837;SDS011;11585;51.450;-0.240;2022-09-09T01:17:08;15.30;;;3.07;;
22837;SDS011;11585;51.450;-0.240;2022-09-09T01:22:20;22.25;;;3.38;;
22837;SDS011;11585;51.450;-0.240;2022-09-09T01:27:51;21.77;;;3.45;;
22837;SDS011;11585;51.450;-0.240;2022-09-09T01:30:20;15.70;;;3.30;;
22837;SDS011;11585;51.450;-0.240;2022-09-09T01:32:48;17.52;;;3.25;;
22837;SDS011;11585;51.450;-0.240;2022-09-09T01:38:07;13.52;;;3.22;;
22837;SDS011;11585;51.450;-0.240;2022-09-09T01:40:33;14.48;;;3.22;;
22837;SDS011;11585;51.450;-0.240;2022-09-09T01:42:59;19.27;;;3.28;;
22837;SDS011;11585;51.450;-0.240;2022-09-09T01:48:47;16.33;;;3.00;;
22837;SDS011;11585;51.450;-0.240;2022-09-09T01:51:15;21.80;;;3.45;;
22837;SDS011;11585;51.450;-0.240;2022-09-09T01:53:40;13.18;;;3.20;;
22837;SDS011;11585;51.450;-0.240;2022-09-09T01:56:14;15.45;;;3.15;;
22837;SDS011;11585;51.450;-0.240;2022-09-09T01:59:08;12.73;;;2.78;;
22837;SDS011;11585;51.450;-0.240;2022-09-09T02:04:41;9.27;;;3.13;;
22837;SDS011;11585;51.450;-0.240;2022-09-09T02:07:14;19.33;;;3.43;;
22837;SDS011;11585;51.450;-0.240;2022-09-09T02:10:10;11.65;;;3.42;;
22837;SDS011;11585;51.450;-0.240;2022-09-09T02:12:42;16.95;;;3.47;;
22837;SDS011;11585;51.450;-0.240;2022-09-09T02:15:24;13.50;;;3.00;;
22837;SDS011;11585;51.450;-0.240;2022-09-09T02:17:55;27.27;;;3.88;;
22837;SDS011;11585;51.450;-0.240;2022-09-09T02:20:27;19.88;;;3.50;;
22837;SDS011;11585;51.450;-0.240;2022-09-09T02:22:55;25.38;;;3.13;;
22837;SDS011;11585;51.450;-0.240;2022-09-09T02:28:09;26.65;;;3.50;;
22837;SDS011;11585;51.450;-0.240;2022-09-09T02:30:37;21.08;;;3.80;;
22837;SDS011;11585;51.450;-0.240;2022-09-09T02:33:07;12.02;;;3.50;;
22837;SDS011;11585;51.450;-0.240;2022-09-09T02:35:36;19.98;;;3.58;;
22837;SDS011;11585;51.450;-0.240;2022-09-09T02:38:03;21.55;;;3.60;;
22837;SDS011;11585;51.450;-0.240;2022-09-09T02:40:33;20.50;;;3.47;;
22837;SDS011;11585;51.450;-0.240;2022-09-09T02:42:58;26.25;;;3.72;;
22837;SDS011;11585;51.450;-0.240;2022-09-09T02:45:25;23.40;;;3.75;;
22837;SDS011;11585;51.450;-0.240;2022-09-09T02:47:59;29.73;;;3.92;;
22837;SDS011;11585;51.450;-0.240;2022-09-09T02:50:40;15.80;;;3.80;;
22837;SDS011;11585;51.450;-0.240;2022-09-09T02:53:22;21.42;;;3.50;;
22837;SDS011;11585;51.450;-0.240;2022-09-09T02:58:59;14.70;;;3.25;;
22837;SDS011;11585;51.450;-0.240;2022-09-09T03:01:29;31.83;;;3.80;;
22837;SDS011;11585;51.450;-0.240;2022-09-09T03:03:56;22.90;;;3.47;;
22837;SDS011;11585;51.450;-0.240;2022-09-09T03:06:22;30.52;;;3.60;;
22837;SDS011;11585;51.450;-0.240;2022-09-09T03:08:48;13.65;;;3.45;;
22837;SDS011;11585;51.450;-0.240;2022-09-09T03:11:14;18.67;;;3.50;;
22837;SDS011;11585;51.450;-0.240;2022-09-09T03:13:41;20.20;;;3.63;;
22837;SDS011;11585;51.450;-0.240;2022-09-09T03:16:06;19.48;;;4.30;;
22837;SDS011;11585;51.450;-0.240;2022-09-09T03:18:34;26.92;;;3.80;;
22837;SDS011;11585;51.450;-0.240;2022-09-09T03:21:00;16.65;;;3.53;;
22837;SDS011;11585;51.450;-0.240;2022-09-09T03:23:26;18.30;;;3.65;;
22837;SDS011;11585;51.450;-0.240;2022-09-09T03:25:53;16.85;;;3.88;;
22837;SDS011;11585;51.450;-0.240;2022-09-09T03:28:21;23.95;;;4.00;;
22837;SDS011;11585;51.450;-0.240;2022-09-09T03:30:48;14.65;;;3.80;;
22837;SDS011;11585;51.450;-0.240;2022-09-09T03:33:14;22.95;;;3.90;;
22837;SDS011;11585;51.450;-0.240;2022-09-09T03:35:45;15.75;;;4.15;;
22837;SDS011;11585;51.450;-0.240;2022-09-09T03:38:14;22.20;;;3.40;;
22837;SDS011;11585;51.450;-0.240;2022-09-09T03:40:47;30.15;;;4.35;;
22837;SDS011;11585;51.450;-0.240;2022-09-09T03:43:20;24.92;;;4.30;;
22837;SDS011;11585;51.450;-0.240;2022-09-09T03:48:34;14.90;;;3.95;;
22837;SDS011;11585;51.450;-0.240;2022-09-09T03:50:59;22.10;;;4.20;;
22837;SDS011;11585;51.450;-0.240;2022-09-09T03:53:26;21.45;;;3.92;;
22837;SDS011;11585;51.450;-0.240;2022-09-09T03:55:53;26.90;;;4.10;;
22837;SDS011;11585;51.450;-0.240;2022-09-09T03:58:21;15.30;;;3.85;;
22837;SDS011;11585;51.450;-0.240;2022-09-09T04:00:55;28.53;;;3.90;;
22837;SDS011;11585;51.450;-0.240;2022-09-09T04:03:22;19.10;;;3.88;;
22837;SDS011;11585;51.450;-0.240;2022-09-09T04:05:53;16.02;;;3.78;;
22837;SDS011;11585;51.450;-0.240;2022-09-09T04:08:20;20.00;;;4.50;;
22837;SDS011;11585;51.450;-0.240;2022-09-09T04:10:47;16.80;;;4.97;;
22837;SDS011;11585;51.450;-0.240;2022-09-09T04:13:14;15.30;;;3.47;;
22837;SDS011;11585;51.450;-0.240;2022-09-09T04:18:16;17.85;;;4.10;;
22837;SDS011;11585;51.450;-0.240;2022-09-09T04:20:42;17.30;;;3.90;;
22837;SDS011;11585;51.450;-0.240;2022-09-09T04:23:08;15.68;;;4.30;;
22837;SDS011;11585;51.450;-0.240;2022-09-09T04:25:36;15.88;;;3.80;;
22837;SDS011;11585;51.450;-0.240;2022-09-09T04:28:03;14.55;;;4.03;;
22837;SDS011;11585;51.450;-0.240;2022-09-09T04:30:28;20.08;;;4.55;;
22837;SDS011;11585;51.450;-0.240;2022-09-09T04:32:54;11.85;;;3.97;;
22837;SDS011;11585;51.450;-0.240;2022-09-09T04:35:22;15.32;;;4.28;;
22837;SDS011;11585;51.450;-0.240;2022-09-09T04:37:48;14.90;;;4.78;;
22837;SDS011;11585;51.450;-0.240;2022-09-09T04:40:13;18.30;;;4.80;;
22837;SDS011;11585;51.450;-0.240;2022-09-09T04:42:40;10.02;;;4.68;;
22837;SDS011;11585;51.450;-0.240;2022-09-09T04:48:30;14.52;;;4.88;;
22837;SDS011;11585;51.450;-0.240;2022-09-09T04:51:08;25.17;;;5.00;;
22837;SDS011;11585;51.450;-0.240;2022-09-09T04:53:36;15.70;;;5.32;;
22837;SDS011;11585;51.450;-0.240;2022-09-09T04:58:48;22.50;;;5.60;;
22837;SDS011;11585;51.450;-0.240;2022-09-09T05:01:18;17.30;;;5.45;;
22837;SDS011;11585;51.450;-0.240;2022-09-09T05:06:33;15.52;;;5.57;;
22837;SDS011;11585;51.450;-0.240;2022-09-09T05:09:01;23.00;;;5.15;;
22837;SDS011;11585;51.450;-0.240;2022-09-09T05:11:27;24.45;;;5.63;;
22837;SDS011;11585;51.450;-0.240;2022-09-09T05:16:44;19.90;;;5.88;;
22837;SDS011;11585;51.450;-0.240;2022-09-09T05:19:12;19.10;;;5.70;;
22837;SDS011;11585;51.450;-0.240;2022-09-09T05:21:38;18.95;;;5.85;;
22837;SDS011;11585;51.450;-0.240;2022-09-09T05:24:10;30.52;;;5.78;;
22837;SDS011;11585;51.450;-0.240;2022-09-09T05:26:36;21.83;;;5.53;;
22837;SDS011;11585;51.450;-0.240;2022-09-09T05:29:03;19.92;;;5.97;;
22837;SDS011;11585;51.450;-0.240;2022-09-09T05:31:30;23.65;;;6.15;;
22837;SDS011;11585;51.450;-0.240;2022-09-09T05:37:02;18.13;;;6.00;;
22837;SDS011;11585;51.450;-0.240;2022-09-09T05:39:31;19.38;;;6.20;;
22837;SDS011;11585;51.450;-0.240;2022-09-09T05:41:57;24.77;;;6.40;;
22837;SDS011;11585;51.450;-0.240;2022-09-09T05:44:25;23.33;;;6.70;;
22837;SDS011;11585;51.450;-0.240;2022-09-09T05:49:19;39.85;;;7.50;;
22837;SDS011;11585;51.450;-0.240;2022-09-09T05:51:45;29.95;;;7.53;;
22837;SDS011;11585;51.450;-0.240;2022-09-09T06:00:06;20.40;;;6.63;;
22837;SDS011;11585;51.450;-0.240;2022-09-09T06:02:32;18.70;;;6.00;;
22837;SDS011;11585;51.450;-0.240;2022-09-09T06:07:43;19.58;;;6.32;;
22837;SDS011;11585;51.450;-0.240;2022-09-09T06:10:10;15.52;;;6.28;;
22837;SDS011;11585;51.450;-0.240;2022-09-09T06:12:38;15.15;;;5.72;;
22837;SDS011;11585;51.450;-0.240;2022-09-09T06:15:04;17.48;;;6.32;;
22837;SDS011;11585;51.450;-0.240;2022-09-09T06:17:30;15.70;;;5.75;;
22837;SDS011;11585;51.450;-0.240;2022-09-09T06:19:56;18.30;;;5.45;;
22837;SDS011;11585;51.450;-0.240;2022-09-09T06:22:22;19.45;;;6.25;;
22837;SDS011;11585;51.450;-0.240;2022-09-09T06:27:34;12.23;;;5.95;;
22837;SDS011;11585;51.450;-0.240;2022-09-09T06:30:00;20.25;;;6.32;;
22837;SDS011;11585;51.450;-0.240;2022-09-09T06:32:25;17.60;;;6.90;;
22837;SDS011;11585;51.450;-0.240;2022-09-09T06:34:53;17.98;;;6.15;;
22837;SDS011;11585;51.450;-0.240;2022-09-09T06:37:19;17.15;;;7.63;;
22837;SDS011;11585;51.450;-0.240;2022-09-09T06:39:45;27.20;;;6.65;;
22837;SDS011;11585;51.450;-0.240;2022-09-09T06:42:11;25.77;;;7.15;;
22837;SDS011;11585;51.450;-0.240;2022-09-09T06:44:37;14.93;;;6.78;;
22837;SDS011;11585;51.450;-0.240;2022-09-09T06:47:03;21.85;;;7.10;;
22837;SDS011;11585;51.450;-0.240;2022-09-09T06:49:32;21.33;;;6.35;;
22837;SDS011;11585;51.450;-0.240;2022-09-09T06:51:57;23.50;;;6.65;;
22837;SDS011;11585;51.450;-0.240;2022-09-09T06:57:28;19.25;;;6.38;;
22837;SDS011;11585;51.450;-0.240;2022-09-09T06:59:54;20.45;;;6.25;;
22837;SDS011;11585;51.450;-0.240;2022-09-09T07:02:20;19.20;;;7.00;;
22837;SDS011;11585;51.450;-0.240;2022-09-09T07:04:47;16.42;;;5.80;;
22837;SDS011;11585;51.450;-0.240;2022-09-09T07:07:15;16.55;;;5.43;;
22837;SDS011;11585;51.450;-0.240;2022-09-09T07:09:42;15.27;;;6.20;;
22837;SDS011;11585;51.450;-0.240;2022-09-09T07:12:09;19.27;;;6.20;;
22837;SDS011;11585;51.450;-0.240;2022-09-09T07:17:04;11.63;;;5.68;;
22837;SDS011;11585;51.450;-0.240;2022-09-09T07:19:30;17.27;;;5.80;;
22837;SDS011;11585;51.450;-0.240;2022-09-09T07:21:55;14.73;;;5.85;;
22837;SDS011;11585;51.450;-0.240;2022-09-09T07:24:21;14.98;;;5.90;;
22837;SDS011;11585;51.450;-0.240;2022-09-09T07:26:46;11.93;;;5.95;;
22837;SDS011;11585;51.450;-0.240;2022-09-09T07:29:12;25.13;;;6.50;;
22837;SDS011;11585;51.450;-0.240;2022-09-09T07:31:39;15.57;;;6.57;;
22837;SDS011;11585;51.450;-0.240;2022-09-09T07:34:06;14.98;;;6.00;;
22837;SDS011;11585;51.450;-0.240;2022-09-09T07:36:33;14.85;;;6.93;;
22837;SDS011;11585;51.450;-0.240;2022-09-09T07:39:02;28.80;;;6.82;;
22837;SDS011;11585;51.450;-0.240;2022-09-09T07:41:31;12.93;;;6.40;;
22837;SDS011;11585;51.450;-0.240;2022-09-09T07:44:11;12.27;;;6.60;;
22837;SDS011;11585;51.450;-0.240;2022-09-09T07:46:38;16.75;;;6.55;;
22837;SDS011;11585;51.450;-0.240;2022-09-09T07:49:04;16.05;;;6.65;;
22837;SDS011;11585;51.450;-0.240;2022-09-09T07:51:32;15.40;;;7.45;;
22837;SDS011;11585;51.450;-0.240;2022-09-09T07:56:52;12.82;;;7.07;;
22837;SDS011;11585;51.450;-0.240;2022-09-09T07:59:18;16.77;;;7.03;;
22837;SDS011;11585;51.450;-0.240;2022-09-09T08:01:48;21.95;;;9.85;;
22837;SDS011;11585;51.450;-0.240;2022-09-09T08:07:04;14.63;;;7.57;;
22837;SDS011;11585;51.450;-0.240;2022-09-09T08:09:30;15.77;;;7.55;;
22837;SDS011;11585;51.450;-0.240;2022-09-09T08:11:57;18.63;;;7.97;;
22837;SDS011;11585;51.450;-0.240;2022-09-09T08:16:54;17.00;;;8.50;;
22837;SDS011;11585;51.450;-0.240;2022-09-09T08:19:21;11.90;;;7.50;;
22837;SDS011;11585;51.450;-0.240;2022-09-09T08:21:48;19.30;;;7.75;;
22837;SDS011;11585;51.450;-0.240;2022-09-09T08:24:15;16.17;;;7.97;;
22837;SDS011;11585;51.450;-0.240;2022-09-09T08:26:45;18.02;;;7.90;;
22837;SDS011;11585;51.450;-0.240;2022-09-09T08:29:14;20.00;;;8.32;;
22837;SDS011;11585;51.450;-0.240;2022-09-09T08:31:41;21.58;;;9.45;;
22837;SDS011;11585;51.450;-0.240;2022-09-09T08:34:08;16.20;;;8.18;;
22837;SDS011;11585;51.450;-0.240;2022-09-09T08:36:36;26.27;;;9.10;;
22837;SDS011;11585;51.450;-0.240;2022-09-09T08:39:04;20.05;;;9.45;;
22837;SDS011;11585;51.450;-0.240;2022-09-09T08:49:40;15.77;;;8.23;;
22837;SDS011;11585;51.450;-0.240;2022-09-09T08:52:27;16.95;;;9.23;;
22837;SDS011;11585;51.450;-0.240;2022-09-09T08:57:42;23.95;;;9.38;;
22837;SDS011;11585;51.450;-0.240;2022-09-09T09:00:09;23.50;;;10.10;;
22837;SDS011;11585;51.450;-0.240;2022-09-09T09:10:58;26.00;;;12.13;;
22837;SDS011;11585;51.450;-0.240;2022-09-09T09:16:36;25.27;;;12.27;;
22837;SDS011;11585;51.450;-0.240;2022-09-09T09:19:10;27.38;;;11.90;;
22837;SDS011;11585;51.450;-0.240;2022-09-09T09:21:40;29.17;;;12.82;;
22837;SDS011;11585;51.450;-0.240;2022-09-09T09:27:15;29.65;;;13.15;;
22837;SDS011;11585;51.450;-0.240;2022-09-09T09:29:45;32.85;;;14.15;;
22837;SDS011;11585;51.450;-0.240;2022-09-09T09:32:15;30.25;;;12.82;;
22837;SDS011;11585;51.450;-0.240;2022-09-09T09:34:49;28.23;;;13.60;;
22837;SDS011;11585;51.450;-0.240;2022-09-09T09:37:30;27.60;;;14.25;;
22837;SDS011;11585;51.450;-0.240;2022-09-09T09:40:11;33.20;;;13.30;;
22837;SDS011;11585;51.450;-0.240;2022-09-09T09:42:51;34.95;;;12.93;;
22837;SDS011;11585;51.450;-0.240;2022-09-09T09:48:13;30.52;;;15.90;;
22837;SDS011;11585;51.450;-0.240;2022-09-09T09:50:52;29.50;;;13.73;;
22837;SDS011;11585;51.450;-0.240;2022-09-09T09:53:44;44.75;;;21.00;;
22837;SDS011;11585;51.450;-0.240;2022-09-09T09:56:12;31.33;;;13.77;;
22837;SDS011;11585;51.450;-0.240;2022-09-09T09:58:49;33.30;;;14.65;;
22837;SDS011;11585;51.450;-0.240;2022-09-09T10:01:24;32.35;;;14.30;;
22837;SDS011;11585;51.450;-0.240;2022-09-09T10:04:01;34.33;;;13.60;;
22837;SDS011;11585;51.450;-0.240;2022-09-09T10:06:48;30.25;;;12.93;;
22837;SDS011;11585;51.450;-0.240;2022-09-09T10:11:49;29.20;;;13.23;;
22837;SDS011;11585;51.450;-0.240;2022-09-09T10:14:21;29.33;;;13.93;;
22837;SDS011;11585;51.450;-0.240;2022-09-09T10:17:29;27.30;;;13.75;;
22837;SDS011;11585;51.450;-0.240;2022-09-09T10:22:50;30.95;;;13.13;;
22837;SDS011;11585;51.450;-0.240;2022-09-09T10:28:58;24.98;;;11.55;;
22837;SDS011;11585;51.450;-0.240;2022-09-09T10:31:52;20.92;;;10.35;;
22837;SDS011;11585;51.450;-0.240;2022-09-09T10:40:38;16.83;;;8.80;;
22837;SDS011;11585;51.450;-0.240;2022-09-09T10:57:51;10.70;;;6.20;;
22837;SDS011;11585;51.450;-0.240;2022-09-09T11:00:19;11.38;;;6.40;;
22837;SDS011;11585;51.450;-0.240;2022-09-09T11:03:09;12.93;;;7.25;;
22837;SDS011;11585;51.450;-0.240;2022-09-09T11:08:48;12.68;;;6.95;;
22837;SDS011;11585;51.450;-0.240;2022-09-09T11:11:29;20.25;;;8.07;;
22837;SDS011;11585;51.450;-0.240;2022-09-09T11:17:18;16.85;;;7.50;;
22837;SDS011;11585;51.450;-0.240;2022-09-09T11:20:17;15.00;;;7.45;;
22837;SDS011;11585;51.450;-0.240;2022-09-09T11:26:21;15.98;;;6.63;;
22837;SDS011;11585;51.450;-0.240;2022-09-09T11:29:38;11.48;;;7.05;;
22837;SDS011;11585;51.450;-0.240;2022-09-09T11:38:46;11.15;;;6.15;;
22837;SDS011;11585;51.450;-0.240;2022-09-09T11:41:32;15.43;;;7.18;;
22837;SDS011;11585;51.450;-0.240;2022-09-09T11:46:53;11.75;;;6.18;;
22837;SDS011;11585;51.450;-0.240;2022-09-09T11:52:10;15.13;;;7.50;;
22837;SDS011;11585;51.450;-0.240;2022-09-09T11:55:32;11.30;;;6.72;;
22837;SDS011;11585;51.450;-0.240;2022-09-09T11:58:14;15.77;;;6.70;;
22837;SDS011;11585;51.450;-0.240;2022-09-09T12:00:48;10.68;;;5.82;;
22837;SDS011;11585;51.450;-0.240;2022-09-09T12:06:33;7.72;;;5.20;;
22837;SDS011;11585;51.450;-0.240;2022-09-09T12:09:29;11.98;;;5.55;;
22837;SDS011;11585;51.450;-0.240;2022-09-09T12:15:00;9.25;;;5.05;;
22837;SDS011;11585;51.450;-0.240;2022-09-09T12:20:34;13.88;;;6.55;;
22837;SDS011;11585;51.450;-0.240;2022-09-09T12:23:18;10.15;;;4.93;;
22837;SDS011;11585;51.450;-0.240;2022-09-09T12:31:52;17.63;;;6.13;;
22837;SDS011;11585;51.450;-0.240;2022-09-09T12:34:32;10.02;;;4.97;;
22837;SDS011;11585;51.450;-0.240;2022-09-09T12:42:48;9.30;;;4.90;;
22837;SDS011;11585;51.450;-0.240;2022-09-09T12:45:23;8.00;;;4.72;;
22837;SDS011;11585;51.450;-0.240;2022-09-09T12:47:57;7.47;;;4.97;;
22837;SDS011;11585;51.450;-0.240;2022-09-09T12:50:31;13.10;;;5.07;;
22837;SDS011;11585;51.450;-0.240;2022-09-09T12:53:10;8.50;;;4.38;;
22837;SDS011;11585;51.450;-0.240;2022-09-09T12:58:34;7.13;;;4.60;;
22837;SDS011;11585;51.450;-0.240;2022-09-09T13:01:02;11.52;;;4.65;;
22837;SDS011;11585;51.450;-0.240;2022-09-09T13:03:46;12.65;;;5.43;;
22837;SDS011;11585;51.450;-0.240;2022-09-09T13:06:16;6.95;;;3.38;;
22837;SDS011;11585;51.450;-0.240;2022-09-09T13:08:52;9.02;;;4.25;;
22837;SDS011;11585;51.450;-0.240;2022-09-09T13:11:23;7.88;;;3.95;;
22837;SDS011;11585;51.450;-0.240;2022-09-09T13:13:54;14.65;;;4.30;;
22837;SDS011;11585;51.450;-0.240;2022-09-09T13:16:29;10.68;;;5.07;;
22837;SDS011;11585;51.450;-0.240;2022-09-09T13:19:00;7.70;;;4.13;;
22837;SDS011;11585;51.450;-0.240;2022-09-09T13:21:32;7.82;;;4.25;;
22837;SDS011;11585;51.450;-0.240;2022-09-09T13:27:29;9.32;;;4.78;;
22837;SDS011;11585;51.450;-0.240;2022-09-09T13:29:59;7.35;;;4.00;;
22837;SDS011;11585;51.450;-0.240;2022-09-09T13:32:26;9.13;;;4.20;;
22837;SDS011;11585;51.450;-0.240;2022-09-09T13:38:15;7.57;;;4.13;;
22837;SDS011;11585;51.450;-0.240;2022-09-09T13:40:51;6.05;;;3.60;;
22837;SDS011;11585;51.450;-0.240;2022-09-09T13:43:42;6.30;;;3.70;;
22837;SDS011;11585;51.450;-0.240;2022-09-09T13:49:01;9.85;;;3.95;;
22837;SDS011;11585;51.450;-0.240;2022-09-09T13:52:02;14.82;;;4.82;;
22837;SDS011;11585;51.450;-0.240;2022-09-09T13:57:38;5.75;;;3.33;;
22837;SDS011;11585;51.450;-0.240;2022-09-09T14:00:04;8.48;;;4.28;;
22837;SDS011;11585;51.450;-0.240;2022-09-09T14:02:32;7.45;;;3.95;;
22837;SDS011;11585;51.450;-0.240;2022-09-09T14:07:44;8.10;;;4.32;;
22837;SDS011;11585;51.450;-0.240;2022-09-09T14:10:11;7.05;;;4.22;;
22837;SDS011;11585;51.450;-0.240;2022-09-09T14:12:37;8.02;;;4.20;;
22837;SDS011;11585;51.450;-0.240;2022-09-09T14:17:48;10.73;;;5.53;;
22837;SDS011;11585;51.450;-0.240;2022-09-09T14:20:14;8.60;;;4.57;;
22837;SDS011;11585;51.450;-0.240;2022-09-09T14:22:42;7.85;;;3.85;;
22837;SDS011;11585;51.450;-0.240;2022-09-09T14:25:09;9.93;;;4.40;;
22837;SDS011;11585;51.450;-0.240;2022-09-09T14:27:34;9.48;;;4.65;;
22837;SDS011;11585;51.450;-0.240;2022-09-09T14:30:03;6.80;;;4.30;;
22837;SDS011;11585;51.450;-0.240;2022-09-09T14:32:32;9.55;;;4.43;;
22837;SDS011;11585;51.450;-0.240;2022-09-09T14:38:20;6.15;;;3.88;;
22837;SDS011;11585;51.450;-0.240;2022-09-09T14:40:45;9.77;;;4.10;;
22837;SDS011;11585;51.450;-0.240;2022-09-09T14:43:11;19.73;;;7.05;;
22837;SDS011;11585;51.450;-0.240;2022-09-09T14:45:42;7.78;;;3.63;;
22837;SDS011;11585;51.450;-0.240;2022-09-09T14:48:08;5.63;;;3.30;;
22837;SDS011;11585;51.450;-0.240;2022-09-09T14:50:34;7.00;;;3.58;;
22837;SDS011;11585;51.450;-0.240;2022-09-09T14:53:01;7.05;;;3.72;;
22837;SDS011;11585;51.450;-0.240;2022-09-09T14:55:29;5.57;;;3.05;;
22837;SDS011;11585;51.450;-0.240;2022-09-09T14:57:55;9.23;;;4.00;;
22837;SDS011;11585;51.450;-0.240;2022-09-09T15:00:20;7.50;;;3.38;;
22837;SDS011;11585;51.450;-0.240;2022-09-09T15:02:51;6.63;;;3.13;;
22837;SDS011;11585;51.450;-0.240;2022-09-09T15:11:43;6.32;;;3.25;;
22837;SDS011;11585;51.450;-0.240;2022-09-09T15:14:10;7.13;;;2.65;;
22837;SDS011;11585;51.450;-0.240;2022-09-09T15:16:37;7.25;;;3.28;;
22837;SDS011;11585;51.450;-0.240;2022-09-09T15:19:04;11.55;;;3.13;;
22837;SDS011;11585;51.450;-0.240;2022-09-09T15:21:31;6.22;;;3.20;;
22837;SDS011;11585;51.450;-0.240;2022-09-09T15:23:59;5.05;;;2.83;;
22837;SDS011;11585;51.450;-0.240;2022-09-09T15:26:25;14.38;;;4.72;;
22837;SDS011;11585;51.450;-0.240;2022-09-09T15:28:52;4.40;;;2.50;;
22837;SDS011;11585;51.450;-0.240;2022-09-09T15:31:23;8.40;;;3.30;;
22837;SDS011;11585;51.450;-0.240;2022-09-09T15:33:50;8.13;;;3.17;;
22837;SDS011;11585;51.450;-0.240;2022-09-09T15:36:17;9.02;;;4.05;;
22837;SDS011;11585;51.450;-0.240;2022-09-09T15:38:44;7.30;;;4.30;;
22837;SDS011;11585;51.450;-0.240;2022-09-09T15:41:11;16.55;;;6.63;;
22837;SDS011;11585;51.450;-0.240;2022-09-09T15:43:46;11.02;;;5.10;;
22837;SDS011;11585;51.450;-0.240;2022-09-09T15:48:42;10.52;;;4.45;;
22837;SDS011;11585;51.450;-0.240;2022-09-09T15:51:09;6.93;;;3.70;;
22837;SDS011;11585;51.450;-0.240;2022-09-09T15:53:35;12.98;;;6.15;;
22837;SDS011;11585;51.450;-0.240;2022-09-09T15:59:09;7.93;;;4.10;;
22837;SDS011;11585;51.450;-0.240;2022-09-09T16:01:35;9.75;;;5.30;;
22837;SDS011;11585;51.450;-0.240;2022-09-09T16:06:51;11.05;;;5.75;;
22837;SDS011;11585;51.450;-0.240;2022-09-09T16:09:19;7.50;;;4.07;;
22837;SDS011;11585;51.450;-0.240;2022-09-09T16:11:46;11.25;;;4.45;;
22837;SDS011;11585;51.450;-0.240;2022-09-09T16:14:12;8.45;;;4.28;;
22837;SDS011;11585;51.450;-0.240;2022-09-09T16:16:40;10.65;;;4.47;;
22837;SDS011;11585;51.450;-0.240;2022-09-09T16:19:08;11.75;;;4.60;;
22837;SDS011;11585;51.450;-0.240;2022-09-09T16:21:37;10.00;;;5.30;;
22837;SDS011;11585;51.450;-0.240;2022-09-09T16:27:15;13.60;;;5.05;;
22837;SDS011;11585;51.450;-0.240;2022-09-09T16:29:41;11.10;;;5.10;;
22837;SDS011;11585;51.450;-0.240;2022-09-09T16:32:06;12.38;;;6.13;;
22837;SDS011;11585;51.450;-0.240;2022-09-09T16:34:34;10.80;;;5.30;;
22837;SDS011;11585;51.450;-0.240;2022-09-09T16:37:00;16.63;;;7.15;;
22837;SDS011;11585;51.450;-0.240;2022-09-09T16:39:26;12.00;;;5.95;;
22837;SDS011;11585;51.450;-0.240;2022-09-09T16:41:52;18.80;;;8.73;;
22837;SDS011;11585;51.450;-0.240;2022-09-09T16:44:19;13.52;;;6.57;;
22837;SDS011;11585;51.450;-0.240;2022-09-09T16:46:45;10.65;;;5.82;;
22837;SDS011;11585;51.450;-0.240;2022-09-09T16:49:13;11.77;;;4.80;;
22837;SDS011;11585;51.450;-0.240;2022-09-09T16:51:42;7.88;;;4.78;;
22837;SDS011;11585;51.450;-0.240;2022-09-09T16:56:54;10.73;;;6.03;;
22837;SDS011;11585;51.450;-0.240;2022-09-09T16:59:20;15.60;;;7.10;;
22837;SDS011;11585;51.450;-0.240;2022-09-09T17:01:48;16.17;;;6.72;;
22837;SDS011;11585;51.450;-0.240;2022-09-09T17:04:16;33.63;;;16.52;;
22837;SDS011;11585;51.450;-0.240;2022-09-09T17:06:49;11.57;;;5.85;;
22837;SDS011;11585;51.450;-0.240;2022-09-09T17:09:15;15.10;;;5.28;;
22837;SDS011;11585;51.450;-0.240;2022-09-09T17:11:42;8.50;;;5.30;;
22837;SDS011;11585;51.450;-0.240;2022-09-09T17:14:11;10.32;;;5.40;;
22837;SDS011;11585;51.450;-0.240;2022-09-09T17:16:39;9.85;;;5.45;;
22837;SDS011;11585;51.450;-0.240;2022-09-09T17:19:05;9.68;;;5.05;;
22837;SDS011;11585;51.450;-0.240;2022-09-09T17:21:33;10.32;;;6.47;;
22837;SDS011;11585;51.450;-0.240;2022-09-09T17:26:43;12.00;;;7.15;;
22837;SDS011;11585;51.450;-0.240;2022-09-09T17:29:10;10.77;;;6.03;;
22837;SDS011;11585;51.450;-0.240;2022-09-09T17:31:36;11.25;;;6.10;;
22837;SDS011;11585;51.450;-0.240;2022-09-09T17:36:46;17.27;;;6.72;;
22837;SDS011;11585;51.450;-0.240;2022-09-09T17:39:13;12.85;;;6.55;;
22837;SDS011;11585;51.450;-0.240;2022-09-09T17:41:39;16.38;;;5.18;;
22837;SDS011;11585;51.450;-0.240;2022-09-09T17:47:09;12.45;;;5.70;;
22837;SDS011;11585;51.450;-0.240;2022-09-09T17:49:34;11.23;;;5.60;;
22837;SDS011;11585;51.450;-0.240;2022-09-09T17:52:00;9.75;;;4.93;;
22837;SDS011;11585;51.450;-0.240;2022-09-09T17:57:48;7.95;;;2.80;;
22837;SDS011;11585;51.450;-0.240;2022-09-09T18:00:13;5.03;;;2.67;;
22837;SDS011;11585;51.450;-0.240;2022-09-09T18:02:39;6.75;;;2.53;;
22837;SDS011;11585;51.450;-0.240;2022-09-09T18:07:50;9.00;;;2.95;;
22837;SDS011;11585;51.450;-0.240;2022-09-09T18:10:17;4.20;;;1.65;;
22837;SDS011;11585;51.450;-0.240;2022-09-09T18:12:42;5.15;;;2.47;;
22837;SDS011;11585;51.450;-0.240;2022-09-09T18:17:56;5.40;;;2.42;;
22837;SDS011;11585;51.450;-0.240;2022-09-09T18:20:25;2.72;;;1.80;;
22837;SDS011;11585;51.450;-0.240;2022-09-09T18:22:51;6.82;;;2.35;;
22837;SDS011;11585;51.450;-0.240;2022-09-09T18:25:17;6.30;;;2.30;;
22837;SDS011;11585;51.450;-0.240;2022-09-09T18:27:43;6.03;;;2.40;;
22837;SDS011;11585;51.450;-0.240;2022-09-09T18:30:08;4.38;;;2.38;;
22837;SDS011;11585;51.450;-0.240;2022-09-09T18:32:34;9.60;;;3.08;;
22837;SDS011;11585;51.450;-0.240;2022-09-09T18:35:01;6.20;;;2.83;;
22837;SDS011;11585;51.450;-0.240;2022-09-09T18:37:27;5.97;;;2.75;;
22837;SDS011;11585;51.450;-0.240;2022-09-09T18:39:52;6.15;;;3.15;;
22837;SDS011;11585;51.450;-0.240;2022-09-09T18:42:18;5.93;;;3.15;;
22837;SDS011;11585;51.450;-0.240;2022-09-09T18:47:29;4.90;;;2.65;;
22837;SDS011;11585;51.450;-0.240;2022-09-09T18:49:55;11.60;;;3.10;;
22837;SDS011;11585;51.450;-0.240;2022-09-09T18:52:21;7.43;;;3.28;;
22837;SDS011;11585;51.450;-0.240;2022-09-09T18:57:17;6.15;;;3.70;;
22837;SDS011;11585;51.450;-0.240;2022-09-09T18:59:43;6.28;;;3.25;;
22837;SDS011;11585;51.450;-0.240;2022-09-09T19:02:09;11.25;;;3.53;;
22837;SDS011;11585;51.450;-0.240;2022-09-09T19:04:36;4.57;;;3.33;;
22837;SDS011;11585;51.450;-0.240;2022-09-09T19:07:02;6.53;;;2.85;;